sensor_id;sensor_type;location;lat;lon;timestamp;pressure;altitude;pressure_sealevel;temperature;humidity
24746;BME280;12845;52.042;6.838;2022-07-06T00:04:11;68234.06;;;13.15;84.92
24746;BME280;12845;52.042;6.838;2022-07-06T00:06:37;68236.56;;;13.12;84.82
24746;BME280;12845;52.042;6.838;2022-07-06T00:09:04;68236.34;;;13.17;84.65
24746;BME280;12845;52.042;6.838;2022-07-06T00:13:55;68248.31;;;13.27;84.03
24746;BME280;12845;52.042;6.838;2022-07-06T00:18:47;68248.66;;;13.32;83.76
24746;BME280;12845;52.042;6.838;2022-07-06T00:21:12;68255.13;;;13.34;83.83
24746;BME280;12845;52.042;6.838;2022-07-06T00:23:38;68265.59;;;13.38;83.41
24746;BME280;12845;52.042;6.838;2022-07-06T00:28:28;68242.03;;;13.22;84.18
24746;BME280;12845;52.042;6.838;2022-07-06T00:30:54;68246.59;;;13.26;84.18
24746;BME280;12845;52.042;6.838;2022-07-06T00:35:45;68242.03;;;13.22;84.06
24746;BME280;12845;52.042;6.838;2022-07-06T00:38:10;68240.91;;;13.21;84.45
24746;BME280;12845;52.042;6.838;2022-07-06T00:40:35;68227.06;;;13.06;84.98
24746;BME280;12845;52.042;6.838;2022-07-06T00:45:26;68214.72;;;12.97;85.70
24746;BME280;12845;52.042;6.838;2022-07-06T00:47:52;68225.94;;;13.05;85.52
24746;BME280;12845;52.042;6.838;2022-07-06T00:50:18;68215.31;;;12.98;86.00
24746;BME280;12845;52.042;6.838;2022-07-06T00:57:39;68210.19;;;12.93;86.43
24746;BME280;12845;52.042;6.838;2022-07-06T01:00:07;68208.47;;;12.92;86.46
24746;BME280;12845;52.042;6.838;2022-07-06T01:02:34;68199.38;;;12.83;87.08
24746;BME280;12845;52.042;6.838;2022-07-06T01:05:02;68197.69;;;12.82;87.21
24746;BME280;12845;52.042;6.838;2022-07-06T01:07:28;68199.22;;;12.81;87.48
24746;BME280;12845;52.042;6.838;2022-07-06T01:09:54;68205.66;;;12.89;87.21
24746;BME280;12845;52.042;6.838;2022-07-06T01:14:46;68210.75;;;12.94;87.33
24746;BME280;12845;52.042;6.838;2022-07-06T01:17:13;68212.28;;;12.93;87.27
24746;BME280;12845;52.042;6.838;2022-07-06T01:19:39;68190.28;;;12.75;87.96
24746;BME280;12845;52.042;6.838;2022-07-06T01:24:30;68205.06;;;12.88;87.72
24746;BME280;12845;52.042;6.838;2022-07-06T01:26:55;68209.63;;;12.93;87.29
24746;BME280;12845;52.042;6.838;2022-07-06T01:29:20;68219.28;;;13.01;87.08
24746;BME280;12845;52.042;6.838;2022-07-06T01:31:47;68215.13;;;12.95;87.25
24746;BME280;12845;52.042;6.838;2022-07-06T01:34:25;68209.63;;;12.93;87.33
24746;BME280;12845;52.042;6.838;2022-07-06T01:39:16;68204.50;;;12.88;87.87
24746;BME280;12845;52.042;6.838;2022-07-06T01:44:07;68205.66;;;12.89;87.87
24746;BME280;12845;52.042;6.838;2022-07-06T01:46:33;68212.22;;;13.00;87.49
24746;BME280;12845;52.042;6.838;2022-07-06T01:48:59;68224.38;;;13.06;87.75
24746;BME280;12845;52.042;6.838;2022-07-06T02:30:10;68160.16;;;12.48;91.15
24746;BME280;12845;52.042;6.838;2022-07-06T02:32:36;68164.16;;;12.52;91.04
24746;BME280;12845;52.042;6.838;2022-07-06T02:35:01;68155.06;;;12.44;91.72
24746;BME280;12845;52.042;6.838;2022-07-06T02:37:27;68147.66;;;12.37;92.24
24746;BME280;12845;52.042;6.838;2022-07-06T02:39:52;68157.31;;;12.46;91.76
24746;BME280;12845;52.042;6.838;2022-07-06T02:42:17;68154.88;;;12.41;92.19
24746;BME280;12845;52.042;6.838;2022-07-06T02:44:43;68153.91;;;12.42;92.11
24746;BME280;12845;52.042;6.838;2022-07-06T02:47:08;68151.09;;;12.40;92.23
24746;BME280;12845;52.042;6.838;2022-07-06T02:49:33;68154.88;;;12.41;92.63
24746;BME280;12845;52.042;6.838;2022-07-06T02:51:59;68156.19;;;12.45;92.13
24746;BME280;12845;52.042;6.838;2022-07-06T02:54:24;68146.53;;;12.36;92.96
24746;BME280;12845;52.042;6.838;2022-07-06T02:56:50;68155.06;;;12.44;92.66
24746;BME280;12845;52.042;6.838;2022-07-06T02:59:19;68146.34;;;12.33;92.86
24746;BME280;12845;52.042;6.838;2022-07-06T03:09:00;68155.63;;;12.44;92.60
24746;BME280;12845;52.042;6.838;2022-07-06T03:11:27;68142.91;;;12.37;92.77
24746;BME280;12845;52.042;6.838;2022-07-06T03:13:52;68158.50;;;12.39;92.81
24746;BME280;12845;52.042;6.838;2022-07-06T03:16:17;68138.56;;;12.29;93.62
24746;BME280;12845;52.042;6.838;2022-07-06T03:18:43;68140.28;;;12.30;93.52
24746;BME280;12845;52.042;6.838;2022-07-06T03:21:08;68148.25;;;12.37;93.31
24746;BME280;12845;52.042;6.838;2022-07-06T03:26:00;68156.41;;;12.40;93.01
24746;BME280;12845;52.042;6.838;2022-07-06T03:28:25;68156.56;;;12.42;93.20
24746;BME280;12845;52.042;6.838;2022-07-06T03:30:50;68154.31;;;12.40;93.18
24746;BME280;12845;52.042;6.838;2022-07-06T03:33:16;68153.91;;;12.42;93.12
24746;BME280;12845;52.042;6.838;2022-07-06T03:35:41;68158.47;;;12.47;93.09
24746;BME280;12845;52.042;6.838;2022-07-06T03:38:06;68156.56;;;12.42;93.08
24746;BME280;12845;52.042;6.838;2022-07-06T03:40:32;68165.28;;;12.53;92.60
24746;BME280;12845;52.042;6.838;2022-07-06T03:42:58;68171.53;;;12.58;92.18
24746;BME280;12845;52.042;6.838;2022-07-06T03:45:23;68174.03;;;12.56;92.22
24746;BME280;12845;52.042;6.838;2022-07-06T03:47:49;68170.97;;;12.58;92.44
24746;BME280;12845;52.042;6.838;2022-07-06T03:50:15;68163.56;;;12.51;92.79
24746;BME280;12845;52.042;6.838;2022-07-06T03:52:40;68164.16;;;12.52;92.86
24746;BME280;12845;52.042;6.838;2022-07-06T04:00:01;68169.25;;;12.56;92.80
24746;BME280;12845;52.042;6.838;2022-07-06T04:02:26;68170.41;;;12.57;93.07
24746;BME280;12845;52.042;6.838;2022-07-06T04:04:51;68169.81;;;12.57;93.13
24746;BME280;12845;52.042;6.838;2022-07-06T04:07:17;68169.63;;;12.54;93.70
24746;BME280;12845;52.042;6.838;2022-07-06T04:17:00;68186.31;;;12.72;92.48
24746;BME280;12845;52.042;6.838;2022-07-06T04:19:45;68193.13;;;12.78;92.61
24746;BME280;12845;52.042;6.838;2022-07-06T04:22:10;68185.50;;;12.76;92.79
24746;BME280;12845;52.042;6.838;2022-07-06T04:24:36;68204.31;;;12.85;92.48
24746;BME280;12845;52.042;6.838;2022-07-06T04:27:01;68194.25;;;12.79;93.24
24746;BME280;12845;52.042;6.838;2022-07-06T04:36:42;68199.72;;;12.88;92.42
24746;BME280;12845;52.042;6.838;2022-07-06T04:39:08;68191.38;;;12.83;93.01
24746;BME280;12845;52.042;6.838;2022-07-06T04:41:33;68203.94;;;12.87;93.11
24746;BME280;12845;52.042;6.838;2022-07-06T04:48:49;68223.81;;;13.05;92.27
24746;BME280;12845;52.042;6.838;2022-07-06T04:51:15;68220.19;;;13.07;92.20
24746;BME280;12845;52.042;6.838;2022-07-06T04:56:07;68234.63;;;13.15;92.04
24746;BME280;12845;52.042;6.838;2022-07-06T04:58:32;68236.72;;;13.15;92.04
24746;BME280;12845;52.042;6.838;2022-07-06T05:00:57;68236.34;;;13.17;91.84
24746;BME280;12845;52.042;6.838;2022-07-06T05:03:23;68243.72;;;13.23;91.60
24746;BME280;12845;52.042;6.838;2022-07-06T05:05:48;68247.16;;;13.26;91.63
24746;BME280;12845;52.042;6.838;2022-07-06T05:08:13;68252.84;;;13.31;91.55
24746;BME280;12845;52.042;6.838;2022-07-06T05:13:04;68254.38;;;13.30;91.45
24746;BME280;12845;52.042;6.838;2022-07-06T05:15:29;68255.13;;;13.34;91.91
24746;BME280;12845;52.042;6.838;2022-07-06T05:17:55;68271.44;;;13.46;91.38
24746;BME280;12845;52.042;6.838;2022-07-06T05:25:11;68263.66;;;13.41;90.94
24746;BME280;12845;52.042;6.838;2022-07-06T05:27:37;68278.44;;;13.54;90.61
24746;BME280;12845;52.042;6.838;2022-07-06T05:32:27;68280.16;;;13.56;90.03
24746;BME280;12845;52.042;6.838;2022-07-06T05:34:53;68291.50;;;13.66;89.82
24746;BME280;12845;52.042;6.838;2022-07-06T05:37:18;68302.16;;;13.73;89.60
24746;BME280;12845;52.042;6.838;2022-07-06T05:39:43;68301.78;;;13.75;88.87
24746;BME280;12845;52.042;6.838;2022-07-06T05:42:10;68298.28;;;13.80;89.04
24746;BME280;12845;52.042;6.838;2022-07-06T05:44:36;68300.63;;;13.74;89.49
24746;BME280;12845;52.042;6.838;2022-07-06T05:47:01;68291.84;;;13.71;89.32
24746;BME280;12845;52.042;6.838;2022-07-06T05:52:29;68306.88;;;13.80;88.68
24746;BME280;12845;52.042;6.838;2022-07-06T05:57:20;68314.28;;;13.87;88.17
24746;BME280;12845;52.042;6.838;2022-07-06T05:59:45;68314.59;;;13.92;87.37
24746;BME280;12845;52.042;6.838;2022-07-06T06:02:10;68318.84;;;13.91;87.37
24746;BME280;12845;52.042;6.838;2022-07-06T06:04:36;68321.69;;;13.93;87.18
24746;BME280;12845;52.042;6.838;2022-07-06T06:07:01;68324.91;;;13.94;87.41
24746;BME280;12845;52.042;6.838;2022-07-06T06:11:52;68317.69;;;13.90;87.72
24746;BME280;12845;52.042;6.838;2022-07-06T06:14:17;68319.41;;;13.91;87.93
24746;BME280;12845;52.042;6.838;2022-07-06T06:16:42;68301.78;;;13.75;89.87
24746;BME280;12845;52.042;6.838;2022-07-06T06:21:33;68295.28;;;13.74;90.94
24746;BME280;12845;52.042;6.838;2022-07-06T06:23:58;68290.38;;;13.65;91.88
24746;BME280;12845;52.042;6.838;2022-07-06T06:33:42;68311.44;;;13.84;90.96
24746;BME280;12845;52.042;6.838;2022-07-06T06:41:00;68306.72;;;13.77;90.78
24746;BME280;12845;52.042;6.838;2022-07-06T06:43:26;68310.28;;;13.83;89.92
24746;BME280;12845;52.042;6.838;2022-07-06T06:48:17;68326.06;;;13.95;89.23
24746;BME280;12845;52.042;6.838;2022-07-06T06:50:47;68337.03;;;14.07;88.42
24746;BME280;12845;52.042;6.838;2022-07-06T06:55:37;68361.28;;;14.34;87.42
24746;BME280;12845;52.042;6.838;2022-07-06T06:58:03;68369.22;;;14.41;86.35
24746;BME280;12845;52.042;6.838;2022-07-06T07:00:29;68375.75;;;14.42;86.23
24746;BME280;12845;52.042;6.838;2022-07-06T07:02:54;68381.41;;;14.47;85.34
24746;BME280;12845;52.042;6.838;2022-07-06T07:07:45;68388.84;;;14.54;84.35
24746;BME280;12845;52.042;6.838;2022-07-06T07:12:45;68391.69;;;14.56;84.54
24746;BME280;12845;52.042;6.838;2022-07-06T07:15:11;68395.69;;;14.60;83.40
24746;BME280;12845;52.042;6.838;2022-07-06T07:20:03;68414.47;;;14.77;82.61
24746;BME280;12845;52.042;6.838;2022-07-06T07:22:29;68411.97;;;14.79;82.29
24746;BME280;12845;52.042;6.838;2022-07-06T07:24:54;68428.13;;;14.89;82.38
24746;BME280;12845;52.042;6.838;2022-07-06T07:29:45;68434.16;;;14.99;81.34
24746;BME280;12845;52.042;6.838;2022-07-06T07:32:10;68448.63;;;15.07;81.11
24746;BME280;12845;52.042;6.838;2022-07-06T07:34:36;68459.22;;;15.22;80.53
24746;BME280;12845;52.042;6.838;2022-07-06T07:37:04;68455.22;;;15.18;80.62
24746;BME280;12845;52.042;6.838;2022-07-06T07:39:30;68450.84;;;15.17;80.27
24746;BME280;12845;52.042;6.838;2022-07-06T07:41:55;68466.13;;;15.21;80.78
24746;BME280;12845;52.042;6.838;2022-07-06T07:49:11;68483.38;;;15.39;79.97
24746;BME280;12845;52.042;6.838;2022-07-06T07:54:01;68512.78;;;15.70;78.89
24746;BME280;12845;52.042;6.838;2022-07-06T07:56:27;68515.78;;;15.75;78.31
24746;BME280;12845;52.042;6.838;2022-07-06T07:58:52;68542.09;;;15.91;77.21
24746;BME280;12845;52.042;6.838;2022-07-06T08:03:43;68538.97;;;15.93;77.23
24746;BME280;12845;52.042;6.838;2022-07-06T08:06:08;68533.31;;;15.88;77.05
24746;BME280;12845;52.042;6.838;2022-07-06T08:08:34;68547.69;;;16.04;76.70
24746;BME280;12845;52.042;6.838;2022-07-06T08:15:50;68591.09;;;16.35;75.34
24746;BME280;12845;52.042;6.838;2022-07-06T08:20:40;68593.38;;;16.37;73.46
24746;BME280;12845;52.042;6.838;2022-07-06T08:23:06;68574.31;;;16.25;72.45
24746;BME280;12845;52.042;6.838;2022-07-06T08:25:31;68586.84;;;16.36;72.81
24746;BME280;12845;52.042;6.838;2022-07-06T08:30:22;68599.06;;;16.42;72.55
24746;BME280;12845;52.042;6.838;2022-07-06T08:32:48;68626.78;;;16.72;71.90
24746;BME280;12845;52.042;6.838;2022-07-06T08:37:39;68633.28;;;16.73;69.55
24746;BME280;12845;52.042;6.838;2022-07-06T08:40:05;68631.34;;;16.76;69.00
24746;BME280;12845;52.042;6.838;2022-07-06T08:42:33;68644.72;;;16.83;68.72
24746;BME280;12845;52.042;6.838;2022-07-06T08:45:01;68660.34;;;16.92;68.90
24746;BME280;12845;52.042;6.838;2022-07-06T08:47:27;68648.44;;;16.91;68.74
24746;BME280;12845;52.042;6.838;2022-07-06T08:49:54;68659.28;;;17.01;66.94
24746;BME280;12845;52.042;6.838;2022-07-06T08:57:10;68686.34;;;17.21;65.81
24746;BME280;12845;52.042;6.838;2022-07-06T09:02:03;68694.31;;;17.28;65.52
24746;BME280;12845;52.042;6.838;2022-07-06T09:04:29;68690.66;;;17.29;65.38
24746;BME280;12845;52.042;6.838;2022-07-06T09:11:49;68722.28;;;17.53;65.78
24746;BME280;12845;52.042;6.838;2022-07-06T09:14:14;68733.44;;;17.68;64.20
24746;BME280;12845;52.042;6.838;2022-07-06T09:16:40;68732.56;;;17.62;64.05
24746;BME280;12845;52.042;6.838;2022-07-06T09:19:10;68733.44;;;17.68;62.56
24746;BME280;12845;52.042;6.838;2022-07-06T09:21:36;68765.66;;;17.92;64.50
24746;BME280;12845;52.042;6.838;2022-07-06T09:24:06;68759.16;;;17.91;61.14
24746;BME280;12845;52.042;6.838;2022-07-06T09:26:32;68761.69;;;17.88;63.47
24746;BME280;12845;52.042;6.838;2022-07-06T09:28:58;68775.94;;;18.01;61.63
24746;BME280;12845;52.042;6.838;2022-07-06T09:31:24;68770.53;;;18.01;63.53
24746;BME280;12845;52.042;6.838;2022-07-06T09:33:54;68783.09;;;18.12;61.39
24746;BME280;12845;52.042;6.838;2022-07-06T09:41:52;68823.31;;;18.43;60.48
24746;BME280;12845;52.042;6.838;2022-07-06T09:44:33;68821.91;;;18.47;59.96
24746;BME280;12845;52.042;6.838;2022-07-06T09:49:26;68826.50;;;18.51;58.61
24746;BME280;12845;52.042;6.838;2022-07-06T09:54:18;68809.38;;;18.36;58.83
24746;BME280;12845;52.042;6.838;2022-07-06T09:56:46;68813.63;;;18.35;58.00
24746;BME280;12845;52.042;6.838;2022-07-06T09:59:20;68823.06;;;18.48;57.97
24746;BME280;12845;52.042;6.838;2022-07-06T10:01:47;68829.34;;;18.54;57.55
24746;BME280;12845;52.042;6.838;2022-07-06T10:04:15;68843.63;;;18.66;56.76
24746;BME280;12845;52.042;6.838;2022-07-06T10:06:44;68798.84;;;18.31;58.68
24746;BME280;12845;52.042;6.838;2022-07-06T10:11:42;68874.50;;;18.94;56.06
24746;BME280;12845;52.042;6.838;2022-07-06T10:14:08;68864.50;;;18.90;54.24
24746;BME280;12845;52.042;6.838;2022-07-06T10:16:37;68853.59;;;18.70;55.84
24746;BME280;12845;52.042;6.838;2022-07-06T10:19:05;68842.50;;;18.65;57.35
24746;BME280;12845;52.042;6.838;2022-07-06T10:21:31;68836.44;;;18.55;56.96
24746;BME280;12845;52.042;6.838;2022-07-06T10:23:57;68837.34;;;18.61;57.30
24746;BME280;12845;52.042;6.838;2022-07-06T10:28:51;68851.66;;;18.74;56.82
24746;BME280;12845;52.042;6.838;2022-07-06T10:31:18;68848.44;;;18.66;57.31
24746;BME280;12845;52.042;6.838;2022-07-06T10:33:44;68829.94;;;18.54;56.42
24746;BME280;12845;52.042;6.838;2022-07-06T10:36:11;68818.50;;;18.44;56.55
24746;BME280;12845;52.042;6.838;2022-07-06T10:38:37;68825.38;;;18.50;56.72
24746;BME280;12845;52.042;6.838;2022-07-06T10:43:37;68855.63;;;18.77;55.92
24746;BME280;12845;52.042;6.838;2022-07-06T10:46:16;68847.63;;;18.70;55.03
24746;BME280;12845;52.042;6.838;2022-07-06T10:48:46;68853.91;;;18.76;57.16
24746;BME280;12845;52.042;6.838;2022-07-06T10:51:32;68849.91;;;18.72;56.08
24746;BME280;12845;52.042;6.838;2022-07-06T10:59:20;68898.47;;;19.15;54.26
24746;BME280;12845;52.042;6.838;2022-07-06T11:02:15;68904.19;;;19.21;53.30
24746;BME280;12845;52.042;6.838;2022-07-06T11:04:46;68905.31;;;19.22;52.74
24746;BME280;12845;52.042;6.838;2022-07-06T11:07:14;68914.47;;;19.30;51.72
24746;BME280;12845;52.042;6.838;2022-07-06T11:09:40;68910.47;;;19.26;51.63
24746;BME280;12845;52.042;6.838;2022-07-06T11:12:19;68916.91;;;19.34;52.44
24746;BME280;12845;52.042;6.838;2022-07-06T11:17:11;68919.84;;;19.30;50.33
24746;BME280;12845;52.042;6.838;2022-07-06T11:22:08;68936.19;;;19.49;51.17
24746;BME280;12845;52.042;6.838;2022-07-06T11:24:37;68936.91;;;19.52;51.72
24746;BME280;12845;52.042;6.838;2022-07-06T11:27:03;68933.88;;;19.47;51.58
24746;BME280;12845;52.042;6.838;2022-07-06T11:29:29;68939.03;;;19.52;53.71
24746;BME280;12845;52.042;6.838;2022-07-06T11:31:59;68945.88;;;19.58;52.00
24746;BME280;12845;52.042;6.838;2022-07-06T11:36:56;68959.22;;;19.72;52.06
24746;BME280;12845;52.042;6.838;2022-07-06T11:39:22;68956.91;;;19.70;52.89
24746;BME280;12845;52.042;6.838;2022-07-06T11:44:13;68975.06;;;19.84;51.60
24746;BME280;12845;52.042;6.838;2022-07-06T11:46:38;68990.50;;;19.98;49.08
24746;BME280;12845;52.042;6.838;2022-07-06T11:51:41;69017.63;;;20.17;50.13
24746;BME280;12845;52.042;6.838;2022-07-06T11:54:10;69053.97;;;20.55;48.44
24746;BME280;12845;52.042;6.838;2022-07-06T11:56:37;69029.94;;;20.33;48.38
24746;BME280;12845;52.042;6.838;2022-07-06T11:59:03;69040.94;;;20.45;48.05
24746;BME280;12845;52.042;6.838;2022-07-06T12:01:30;69024.94;;;20.31;49.02
24746;BME280;12845;52.042;6.838;2022-07-06T12:04:01;69028.22;;;20.32;48.02
24746;BME280;12845;52.042;6.838;2022-07-06T12:06:29;69017.91;;;20.22;47.34
24746;BME280;12845;52.042;6.838;2022-07-06T12:08:58;69008.91;;;20.17;47.77
24746;BME280;12845;52.042;6.838;2022-07-06T12:11:28;69060.25;;;20.60;47.23
24746;BME280;12845;52.042;6.838;2022-07-06T12:13:59;69051.09;;;20.52;48.04
24746;BME280;12845;52.042;6.838;2022-07-06T12:16:34;69051.69;;;20.53;46.87
24746;BME280;12845;52.042;6.838;2022-07-06T12:19:00;69077.66;;;20.71;46.46
24746;BME280;12845;52.042;6.838;2022-07-06T12:21:26;69083.28;;;20.83;47.27
24746;BME280;12845;52.042;6.838;2022-07-06T12:26:20;69065.66;;;20.60;47.18
24746;BME280;12845;52.042;6.838;2022-07-06T12:29:03;69077.97;;;20.76;44.72
24746;BME280;12845;52.042;6.838;2022-07-06T12:31:35;69091.69;;;20.88;44.93
24746;BME280;12845;52.042;6.838;2022-07-06T12:34:02;69106.25;;;20.96;46.79
24746;BME280;12845;52.042;6.838;2022-07-06T12:38:54;69121.03;;;21.17;44.93
24746;BME280;12845;52.042;6.838;2022-07-06T12:41:34;69175.25;;;21.63;43.63
24746;BME280;12845;52.042;6.838;2022-07-06T12:44:01;69152.88;;;21.33;42.10
24746;BME280;12845;52.042;6.838;2022-07-06T12:46:37;69140.91;;;21.32;43.25
24746;BME280;12845;52.042;6.838;2022-07-06T12:49:11;69122.19;;;21.18;42.66
24746;BME280;12845;52.042;6.838;2022-07-06T12:51:55;69113.03;;;21.10;44.83
24746;BME280;12845;52.042;6.838;2022-07-06T12:59:25;69171.81;;;21.60;44.16
24746;BME280;12845;52.042;6.838;2022-07-06T13:01:52;69158.09;;;21.48;43.19
24746;BME280;12845;52.042;6.838;2022-07-06T13:04:21;69132.31;;;21.25;43.33
24746;BME280;12845;52.042;6.838;2022-07-06T13:06:47;69146.06;;;21.37;43.82
24746;BME280;12845;52.042;6.838;2022-07-06T13:09:12;69129.47;;;21.22;44.09
24746;BME280;12845;52.042;6.838;2022-07-06T13:14:05;69128.31;;;21.21;44.05
24746;BME280;12845;52.042;6.838;2022-07-06T13:16:30;69123.16;;;21.16;43.24
24746;BME280;12845;52.042;6.838;2022-07-06T13:21:24;69065.41;;;20.65;45.39
24746;BME280;12845;52.042;6.838;2022-07-06T13:23:50;69081.97;;;20.80;45.39
24746;BME280;12845;52.042;6.838;2022-07-06T13:28:40;69095.72;;;20.92;45.17
24746;BME280;12845;52.042;6.838;2022-07-06T13:31:05;69100.44;;;20.99;44.65
24746;BME280;12845;52.042;6.838;2022-07-06T13:38:21;69103.88;;;21.02;44.83
24746;BME280;12845;52.042;6.838;2022-07-06T13:40:47;69107.72;;;21.03;44.12
24746;BME280;12845;52.042;6.838;2022-07-06T13:43:12;69087.13;;;20.84;45.12
24746;BME280;12845;52.042;6.838;2022-07-06T13:45:38;69121.03;;;21.17;46.05
24746;BME280;12845;52.042;6.838;2022-07-06T13:48:03;69177.28;;;21.70;45.92
24746;BME280;12845;52.042;6.838;2022-07-06T13:50:28;69181.13;;;21.71;42.56
24746;BME280;12845;52.042;6.838;2022-07-06T13:55:22;69161.22;;;21.46;44.87
24746;BME280;12845;52.042;6.838;2022-07-06T13:57:48;69163.25;;;21.52;42.55
24746;BME280;12845;52.042;6.838;2022-07-06T14:00:13;69145.09;;;21.38;43.38
24746;BME280;12845;52.042;6.838;2022-07-06T14:02:39;69180.56;;;21.70;41.92
24746;BME280;12845;52.042;6.838;2022-07-06T14:07:30;69216.03;;;22.02;42.54
24746;BME280;12845;52.042;6.838;2022-07-06T14:09:55;69222.91;;;22.08;43.62
24746;BME280;12845;52.042;6.838;2022-07-06T14:12:21;69227.91;;;22.10;43.45
24746;BME280;12845;52.042;6.838;2022-07-06T14:14:49;69171.81;;;21.60;43.29
24746;BME280;12845;52.042;6.838;2022-07-06T14:17:14;69143.19;;;21.34;45.18
24746;BME280;12845;52.042;6.838;2022-07-06T14:22:05;69249.41;;;22.34;42.42
24746;BME280;12845;52.042;6.838;2022-07-06T14:24:30;69280.59;;;22.57;42.42
24746;BME280;12845;52.042;6.838;2022-07-06T14:26:56;69257.69;;;22.37;41.47
24746;BME280;12845;52.042;6.838;2022-07-06T14:29:21;69237.53;;;22.26;42.61
24746;BME280;12845;52.042;6.838;2022-07-06T14:31:46;69285.31;;;22.64;43.38
24746;BME280;12845;52.042;6.838;2022-07-06T14:34:12;69302.38;;;22.77;42.68
24746;BME280;12845;52.042;6.838;2022-07-06T14:36:38;69300.06;;;22.74;41.91
24746;BME280;12845;52.042;6.838;2022-07-06T14:39:04;69263.72;;;22.47;42.25
24746;BME280;12845;52.042;6.838;2022-07-06T14:41:29;69272.31;;;22.55;42.33
24746;BME280;12845;52.042;6.838;2022-07-06T14:43:55;69293.75;;;22.69;41.80
24746;BME280;12845;52.042;6.838;2022-07-06T14:46:20;69268.72;;;22.49;42.27
24746;BME280;12845;52.042;6.838;2022-07-06T14:48:46;69242.81;;;22.23;43.70
24746;BME280;12845;52.042;6.838;2022-07-06T14:53:36;69210.72;;;21.95;45.26
24746;BME280;12845;52.042;6.838;2022-07-06T14:56:02;69241.66;;;22.22;45.33
24746;BME280;12845;52.042;6.838;2022-07-06T14:58:27;69244.25;;;22.29;44.88
24746;BME280;12845;52.042;6.838;2022-07-06T15:00:53;69238.22;;;22.19;44.70
24746;BME280;12845;52.042;6.838;2022-07-06T15:03:18;69234.78;;;22.16;44.36
24746;BME280;12845;52.042;6.838;2022-07-06T15:05:44;69238.47;;;22.15;45.01
24746;BME280;12845;52.042;6.838;2022-07-06T15:08:12;69215.47;;;22.01;44.87
24746;BME280;12845;52.042;6.838;2022-07-06T15:10:37;69214.16;;;21.98;44.39
24746;BME280;12845;52.042;6.838;2022-07-06T15:13:02;69192.72;;;21.83;45.85
24746;BME280;12845;52.042;6.838;2022-07-06T15:15:28;69184.41;;;21.71;45.78
24746;BME280;12845;52.042;6.838;2022-07-06T15:17:53;69181.53;;;21.69;45.94
24746;BME280;12845;52.042;6.838;2022-07-06T15:25:12;69185.56;;;21.72;45.92
24746;BME280;12845;52.042;6.838;2022-07-06T15:32:28;69177.22;;;21.60;46.82
24746;BME280;12845;52.042;6.838;2022-07-06T15:34:53;69180.00;;;21.70;46.76
24746;BME280;12845;52.042;6.838;2022-07-06T15:37:18;69201.56;;;21.86;45.75
24746;BME280;12845;52.042;6.838;2022-07-06T15:39:44;69198.13;;;21.83;47.11
24746;BME280;12845;52.042;6.838;2022-07-06T15:42:09;69185.56;;;21.72;46.81
24746;BME280;12845;52.042;6.838;2022-07-06T15:47:04;69180.13;;;21.72;46.25
24746;BME280;12845;52.042;6.838;2022-07-06T15:49:31;69189.13;;;21.78;48.77
24746;BME280;12845;52.042;6.838;2022-07-06T15:51:56;69180.00;;;21.70;47.57
24746;BME280;12845;52.042;6.838;2022-07-06T15:54:22;69182.38;;;21.65;48.79
24746;BME280;12845;52.042;6.838;2022-07-06T15:56:47;69171.97;;;21.62;48.09
24746;BME280;12845;52.042;6.838;2022-07-06T15:59:13;69171.41;;;21.62;47.76
24746;BME280;12845;52.042;6.838;2022-07-06T16:04:03;69154.66;;;21.45;48.69
24746;BME280;12845;52.042;6.838;2022-07-06T16:06:29;69132.78;;;21.32;48.35
24746;BME280;12845;52.042;6.838;2022-07-06T16:08:55;69122.59;;;21.16;47.72
24746;BME280;12845;52.042;6.838;2022-07-06T16:11:20;69094.56;;;20.91;47.88
24746;BME280;12845;52.042;6.838;2022-07-06T16:13:46;69102.00;;;20.98;49.18
24746;BME280;12845;52.042;6.838;2022-07-06T16:16:12;69093.41;;;20.90;48.00
24746;BME280;12845;52.042;6.838;2022-07-06T16:18:37;69097.09;;;20.88;48.67
24746;BME280;12845;52.042;6.838;2022-07-06T16:21:03;69100.84;;;20.96;49.28
24746;BME280;12845;52.042;6.838;2022-07-06T16:23:28;69091.97;;;20.84;49.29
24746;BME280;12845;52.042;6.838;2022-07-06T16:25:54;69073.97;;;20.72;48.92
24746;BME280;12845;52.042;6.838;2022-07-06T16:30:45;69063.69;;;20.63;49.13
24746;BME280;12845;52.042;6.838;2022-07-06T16:35:38;69056.84;;;20.57;49.90
24746;BME280;12845;52.042;6.838;2022-07-06T16:38:05;69064.25;;;20.64;49.94
24746;BME280;12845;52.042;6.838;2022-07-06T16:40:30;69050.53;;;20.51;49.06
24746;BME280;12845;52.042;6.838;2022-07-06T16:42:56;69050.09;;;20.54;50.01
24746;BME280;12845;52.042;6.838;2022-07-06T16:45:21;69057.41;;;20.58;50.59
24746;BME280;12845;52.042;6.838;2022-07-06T16:50:12;69045.38;;;20.47;49.48
24746;BME280;12845;52.042;6.838;2022-07-06T16:52:37;69050.19;;;20.46;50.42
24746;BME280;12845;52.042;6.838;2022-07-06T16:55:03;69048.22;;;20.49;50.42
24746;BME280;12845;52.042;6.838;2022-07-06T16:57:28;69053.97;;;20.55;51.06
24746;BME280;12845;52.042;6.838;2022-07-06T17:02:19;69041.09;;;20.48;49.91
24746;BME280;12845;52.042;6.838;2022-07-06T17:04:46;69041.09;;;20.48;49.58
24746;BME280;12845;52.042;6.838;2022-07-06T17:07:12;69038.75;;;20.36;49.51
24746;BME280;12845;52.042;6.838;2022-07-06T17:09:37;69038.50;;;20.41;49.99
24746;BME280;12845;52.042;6.838;2022-07-06T17:12:03;69020.38;;;20.27;49.28
24746;BME280;12845;52.042;6.838;2022-07-06T17:14:30;69019.78;;;20.26;49.02
24746;BME280;12845;52.042;6.838;2022-07-06T17:16:55;69020.22;;;20.24;50.11
24746;BME280;12845;52.042;6.838;2022-07-06T17:24:11;68979.22;;;19.90;55.61
24746;BME280;12845;52.042;6.838;2022-07-06T17:26:37;68968.19;;;19.78;57.17
24746;BME280;12845;52.042;6.838;2022-07-06T17:29:04;68961.34;;;19.72;59.28
24746;BME280;12845;52.042;6.838;2022-07-06T17:31:30;68957.34;;;19.68;60.09
24746;BME280;12845;52.042;6.838;2022-07-06T17:33:55;68939.59;;;19.52;60.33
24746;BME280;12845;52.042;6.838;2022-07-06T17:36:20;68925.91;;;19.40;61.70
24746;BME280;12845;52.042;6.838;2022-07-06T17:38:46;68919.63;;;19.34;61.81